St Cloud Regional Airport
KSTC : rendu visible

Aérodrome :











RETROUVEZ-NOUS SUR...

 
LOGIN :

S'inscrire | Disclaimer

   EN    FR    IT 

 









Légende :    VFR   VFR Marginal   IFR   IFR Intensif   IFR Très Intensif
Visi : 
Plafond : 
>= 8 km
>= 3000ft
5 à 8 km
1000 à 3000 ft
1500m à 5 km
500 à 1000 ft
800 à 1500m
200 à 500 ft
< 800m
< 200 ft
Symboles :   Orages  Brouillard  Fortes neiges  Fortes précipitations  Vent > 20 kt






- Altitude de l'aérodrome : 1031 ft
- Code IATA : STC


KSTC - St Cloud Regional

DERNIER METAR :
  • 251653Z 00000KT 10SM SCT120 23/17 A2985 RMK AO2 SLP113 T02330167 $

METARs EXPIRÉS :
  • 251553Z 33004KT 10SM OVC110 21/17 A2986 RMK AO2 SLP115 T02110167 $
  • 251453Z 36004KT 10SM OVC120 19/16 A2986 RMK AO2 SLP116 T01940161 53001 /

TAF KSTC
Valide du 25 à 12h jusqu'au 26 à 12h UTC


251135Z 2512/2612 00000KT 6SM BR BKN040
TEMPO 2512/2513 3SM BR
FM251300 VRB03KT 6SM -SHRA BR SCT020 BKN040
FM251800 VRB03KT P6SM BKN050
FM260000 VRB04KT P6SM BKN080
FIR KZMP / Amérique du Nord



MET'MAP, la Météo Aéronautique d'un coup d'oeil ! - Copyright ORBIFLY Décembre 2007 - Disclaimer

ORBIFLY MET'MAP TEAM :

Programmation & Développement : Alexandra Zaïnal
Sur une idée originale de : Baudouin d'Aumeries
Assistance à la programmation : Marc-Olivier Méhu
Soutien technique & logistique : Manuel Goepfert

Contact : metmap@orbifly.com




SOURCES & CREDITS :

   NOAA       Earth
Advisory